createdAt,value
2022-11-05T00:01:19.463Z,9.03
2022-11-05T00:04:06.256Z,9.00
2022-11-05T00:06:52.952Z,8.93
2022-11-05T00:09:29.860Z,8.90
2022-11-05T00:12:22.171Z,8.87
2022-11-05T00:15:08.705Z,8.79
2022-11-05T00:17:36.928Z,8.73
2022-11-05T00:20:06.506Z,8.69
2022-11-05T00:22:53.062Z,8.64
2022-11-05T00:25:22.157Z,8.58
2022-11-05T00:27:52.340Z,8.52
2022-11-05T00:30:24.286Z,8.47
2022-11-05T00:32:53.368Z,8.41
2022-11-05T00:35:22.602Z,8.35
2022-11-05T00:37:53.573Z,8.32
2022-11-05T00:40:21.423Z,8.29
2022-11-05T00:43:08.286Z,8.25
2022-11-05T00:45:37.829Z,8.21
2022-11-05T00:48:24.749Z,8.18
2022-11-05T00:50:52.705Z,8.13
2022-11-05T00:53:20.695Z,8.13
2022-11-05T00:55:48.599Z,8.13
2022-11-05T00:58:19.055Z,8.14
2022-11-05T01:00:52.635Z,8.18
2022-11-05T01:03:24.469Z,8.22
2022-11-05T01:05:55.912Z,8.24
2022-11-05T01:08:26.805Z,8.27
2022-11-05T01:10:57.779Z,8.31
2022-11-05T01:13:30.257Z,8.37
2022-11-05T01:15:58.154Z,8.44
2022-11-05T01:18:26.066Z,8.49
2022-11-05T01:20:54.027Z,8.52
2022-11-05T01:23:22.212Z,8.52
2022-11-05T01:25:50.367Z,8.55
2022-11-05T01:28:18.309Z,8.58
2022-11-05T01:30:46.214Z,8.61
2022-11-05T01:33:14.347Z,8.63
2022-11-05T01:35:42.662Z,8.65
2022-11-05T01:38:10.641Z,8.67
2022-11-05T01:40:42.632Z,8.70
2022-11-05T01:43:16.070Z,8.71
2022-11-05T01:45:47.895Z,8.74
2022-11-05T01:48:23.976Z,8.78
2022-11-05T01:51:01.340Z,8.81
2022-11-05T01:53:49.926Z,8.82
2022-11-05T01:56:24.901Z,8.82
2022-11-05T01:58:57.956Z,8.84
2022-11-05T02:01:26.128Z,8.89
2022-11-05T02:03:59.801Z,8.94
2022-11-05T02:06:30.417Z,9.00
2022-11-05T02:09:13.405Z,9.01
2022-11-05T02:11:41.426Z,9.03
2022-11-05T02:14:09.453Z,9.01
2022-11-05T02:16:40.431Z,8.96
2022-11-05T02:19:23.453Z,8.94
2022-11-05T02:22:08.994Z,8.92
2022-11-05T02:24:45.927Z,8.91
2022-11-05T02:27:29.524Z,8.85
2022-11-05T02:30:03.654Z,8.81
2022-11-05T02:32:40.862Z,8.78
2022-11-05T02:35:35.206Z,8.76
2022-11-05T02:38:07.330Z,8.72
2022-11-05T02:40:54.185Z,8.69
2022-11-05T02:43:51.777Z,8.65
2022-11-05T02:46:29.315Z,8.61
2022-11-05T02:49:13.388Z,8.56
2022-11-05T02:51:55.607Z,8.52
2022-11-05T02:54:35.359Z,8.49
2022-11-05T02:57:04.938Z,8.47
2022-11-05T02:59:32.854Z,8.43
2022-11-05T03:02:26.690Z,8.40
2022-11-05T03:04:54.890Z,8.38
2022-11-05T03:07:44.623Z,8.37
2022-11-05T03:10:43.330Z,8.33
2022-11-05T03:13:22.593Z,8.34
2022-11-05T03:15:55.713Z,8.35
2022-11-05T03:18:43.374Z,8.35
2022-11-05T03:21:37.657Z,8.36
2022-11-05T03:24:34.266Z,8.35
2022-11-05T03:27:13.568Z,8.36
2022-11-05T03:29:49.147Z,8.38
2022-11-05T03:32:20.744Z,8.41
2022-11-05T03:34:56.797Z,8.45
2022-11-05T03:37:28.704Z,8.48
2022-11-05T03:40:00.515Z,8.50
2022-11-05T03:42:34.673Z,8.53
2022-11-05T03:45:08.693Z,8.55
2022-11-05T03:47:41.177Z,8.54
2022-11-05T03:50:59.892Z,8.55
2022-11-05T03:53:32.298Z,8.58
2022-11-05T03:56:10.634Z,8.57
2022-11-05T03:58:44.204Z,8.56
2022-11-05T04:01:12.597Z,8.54
2022-11-05T04:03:40.495Z,8.53
2022-11-05T04:06:29.223Z,8.55
2022-11-05T04:09:15.854Z,8.58
2022-11-05T04:12:02.311Z,8.59
2022-11-05T04:14:31.163Z,8.60
2022-11-05T04:17:09.734Z,8.63
2022-11-05T04:20:01.980Z,8.68
2022-11-05T04:22:54.032Z,8.68
2022-11-05T04:25:22.839Z,8.67
2022-11-05T04:27:51.628Z,8.68
2022-11-05T04:30:20.590Z,8.68
2022-11-05T04:32:58.691Z,8.66
2022-11-05T04:35:28.987Z,8.63
2022-11-05T04:37:57.078Z,8.58
2022-11-05T04:40:25.944Z,8.53
2022-11-05T04:42:55.681Z,8.48
2022-11-05T04:45:25.445Z,8.44
2022-11-05T04:47:53.474Z,8.40
2022-11-05T04:50:21.912Z,8.37
2022-11-05T04:52:49.867Z,8.33
2022-11-05T04:55:18.033Z,8.30
2022-11-05T04:57:51.298Z,8.27
2022-11-05T05:00:20.891Z,8.23
2022-11-05T05:02:49.414Z,8.20
2022-11-05T05:05:17.779Z,8.18
2022-11-05T05:07:45.757Z,8.17
2022-11-05T05:10:13.634Z,8.16
2022-11-05T05:12:41.667Z,8.17
2022-11-05T05:15:09.723Z,8.19
2022-11-05T05:17:37.687Z,8.21
2022-11-05T05:20:24.502Z,8.22
2022-11-05T05:22:55.778Z,8.20
2022-11-05T05:25:23.851Z,8.20
2022-11-05T05:27:51.945Z,8.19
2022-11-05T05:30:19.869Z,8.21
2022-11-05T05:32:47.743Z,8.21
2022-11-05T05:35:16.040Z,8.22
2022-11-05T05:37:44.345Z,8.24
2022-11-05T05:40:12.244Z,8.26
2022-11-05T05:42:43.105Z,8.25
2022-11-05T05:45:12.792Z,8.28
2022-11-05T05:47:40.675Z,8.32
2022-11-05T05:50:08.681Z,8.37
2022-11-05T05:52:36.553Z,8.40
2022-11-05T05:55:04.854Z,8.38
2022-11-05T05:57:34.151Z,8.34
2022-11-05T06:00:02.145Z,8.35
2022-11-05T06:02:40.057Z,8.42
2022-11-05T06:05:08.407Z,8.48
2022-11-05T06:07:37.556Z,8.55
2022-11-05T06:10:07.238Z,8.63
2022-11-05T06:12:35.304Z,8.70
2022-11-05T06:15:03.986Z,8.76
2022-11-05T06:17:33.077Z,8.77
2022-11-05T06:20:01.041Z,8.81
2022-11-05T06:22:28.918Z,8.85
2022-11-05T06:24:56.754Z,8.94
2022-11-05T06:27:24.729Z,9.03
2022-11-05T06:29:52.561Z,9.10
2022-11-05T06:32:20.426Z,9.14
2022-11-05T06:34:48.544Z,9.17
2022-11-05T06:37:16.526Z,9.19
2022-11-05T06:39:44.686Z,9.22
2022-11-05T06:42:18.488Z,9.22
2022-11-05T06:44:47.269Z,9.19
2022-11-05T06:47:15.124Z,9.13
2022-11-05T06:49:43.009Z,9.09
2022-11-05T06:52:11.184Z,9.11
2022-11-05T06:54:40.185Z,9.15
2022-11-05T06:57:12.416Z,9.18
2022-11-05T06:59:40.758Z,9.19
2022-11-05T07:02:12.644Z,9.20
2022-11-05T07:04:40.567Z,9.21
2022-11-05T07:07:08.513Z,9.24
2022-11-05T07:09:42.678Z,9.27
2022-11-05T07:12:10.562Z,9.32
2022-11-05T07:14:38.438Z,9.41
2022-11-05T07:17:06.349Z,9.49
2022-11-05T07:19:34.311Z,9.55
2022-11-05T07:22:02.256Z,9.60
2022-11-05T07:24:30.193Z,9.64
2022-11-05T07:26:58.262Z,9.67
2022-11-05T07:29:26.137Z,9.62
2022-11-05T07:31:54.015Z,9.53
2022-11-05T07:34:21.886Z,9.51
2022-11-05T07:36:49.828Z,9.56
2022-11-05T07:39:17.728Z,9.63
2022-11-05T07:41:45.642Z,9.73
2022-11-05T07:44:14.481Z,9.83
2022-11-05T07:46:42.547Z,9.93
2022-11-05T07:49:10.480Z,10.01
2022-11-05T07:51:38.440Z,10.08
2022-11-05T07:54:06.456Z,10.15
2022-11-05T07:56:34.447Z,10.20
2022-11-05T07:59:02.696Z,10.25
2022-11-05T08:01:30.863Z,10.32
2022-11-05T08:03:58.977Z,10.39
2022-11-05T08:06:26.846Z,10.46
2022-11-05T08:08:54.797Z,10.52
2022-11-05T08:11:22.707Z,10.58
2022-11-05T08:13:50.571Z,10.64
2022-11-05T08:16:18.525Z,10.71
2022-11-05T08:18:46.995Z,10.82
2022-11-05T08:21:15.015Z,10.95
2022-11-05T08:23:43.081Z,11.11
2022-11-05T08:26:10.952Z,11.27
2022-11-05T08:28:39.001Z,11.41
2022-11-05T08:31:06.877Z,11.53
2022-11-05T08:33:35.071Z,11.69
2022-11-05T08:36:04.633Z,11.86
2022-11-05T08:38:32.653Z,12.02
2022-11-05T08:41:00.950Z,12.15
2022-11-05T08:43:28.873Z,12.28
2022-11-05T08:45:56.761Z,12.39
2022-11-05T08:48:24.748Z,12.46
2022-11-05T08:50:52.703Z,12.49
2022-11-05T08:53:20.696Z,12.46
2022-11-05T08:55:50.172Z,12.41
2022-11-05T08:58:20.230Z,12.38
2022-11-05T09:00:49.639Z,12.42
2022-11-05T09:03:18.045Z,12.50
2022-11-05T09:05:46.743Z,12.59
2022-11-05T09:08:17.101Z,12.67
2022-11-05T09:10:47.063Z,12.75
2022-11-05T09:13:19.391Z,12.85
2022-11-05T09:15:49.481Z,12.94
2022-11-05T09:18:19.035Z,12.99
2022-11-05T09:20:47.371Z,13.02
2022-11-05T09:23:16.273Z,13.02
2022-11-05T09:25:44.786Z,12.99
2022-11-05T09:28:18.329Z,12.98
2022-11-05T09:30:48.731Z,12.99
2022-11-05T09:33:19.000Z,13.02
2022-11-05T09:35:47.527Z,13.01
2022-11-05T09:38:15.450Z,12.96
2022-11-05T09:41:01.012Z,12.92
2022-11-05T09:43:44.686Z,12.90
2022-11-05T09:46:19.332Z,12.89
2022-11-05T09:48:52.358Z,12.89
2022-11-05T09:51:24.104Z,12.92
2022-11-05T09:53:53.582Z,12.98
2022-11-05T09:56:26.922Z,13.13
2022-11-05T09:59:00.537Z,13.29
2022-11-05T10:01:35.442Z,13.42
2022-11-05T10:04:13.165Z,13.58
2022-11-05T10:06:48.865Z,13.78
2022-11-05T10:09:28.141Z,13.98
2022-11-05T10:12:06.505Z,14.18
2022-11-05T10:14:40.531Z,14.33
2022-11-05T10:17:25.147Z,14.47
2022-11-05T10:20:20.670Z,14.57
2022-11-05T10:22:58.652Z,14.58
2022-11-05T10:25:32.054Z,14.61
2022-11-05T10:28:00.461Z,14.67
2022-11-05T10:30:28.379Z,14.70
2022-11-05T10:32:59.599Z,14.72
2022-11-05T10:35:30.809Z,14.73
2022-11-05T10:37:58.705Z,14.72
2022-11-05T10:40:38.762Z,14.68
2022-11-05T10:43:15.894Z,14.64
2022-11-05T10:45:59.775Z,14.64
2022-11-05T10:48:34.691Z,14.69
2022-11-05T10:51:07.206Z,14.72
2022-11-05T10:53:38.609Z,14.71
2022-11-05T10:56:32.480Z,14.72
2022-11-05T10:59:00.973Z,14.79
2022-11-05T11:01:30.380Z,14.90
2022-11-05T11:04:32.256Z,14.97
2022-11-05T11:07:03.723Z,14.97
2022-11-05T11:09:35.993Z,14.92
2022-11-05T11:12:21.746Z,14.86
2022-11-05T11:15:12.455Z,14.77
2022-11-05T11:17:40.854Z,14.68
2022-11-05T11:20:17.961Z,14.62
2022-11-05T11:23:13.000Z,14.56
2022-11-05T11:25:47.155Z,14.53
2022-11-05T11:28:20.251Z,14.54
2022-11-05T11:31:04.244Z,14.52
2022-11-05T11:33:33.841Z,14.51
2022-11-05T11:36:02.266Z,14.49
2022-11-05T11:38:33.038Z,14.49
2022-11-05T11:41:30.878Z,14.51
2022-11-05T11:44:11.513Z,14.52
2022-11-05T11:46:40.049Z,14.56
2022-11-05T11:49:32.688Z,14.61
2022-11-05T11:52:04.963Z,14.67
2022-11-05T11:54:35.070Z,14.71
2022-11-05T11:57:03.607Z,14.74
2022-11-05T12:00:01.816Z,14.76
2022-11-05T12:02:28.586Z,14.77
2022-11-05T12:05:10.388Z,14.78
2022-11-05T12:07:44.100Z,14.80
2022-11-05T12:10:18.148Z,14.85
2022-11-05T12:13:01.278Z,14.89
2022-11-05T12:15:52.039Z,14.91
2022-11-05T12:18:27.271Z,14.93
2022-11-05T12:21:07.438Z,14.95
2022-11-05T12:23:44.374Z,14.95
2022-11-05T12:26:22.313Z,14.99
2022-11-05T12:29:17.486Z,15.03
2022-11-05T12:32:01.567Z,15.06
2022-11-05T12:34:35.551Z,15.08
2022-11-05T12:37:24.938Z,15.09
2022-11-05T12:40:14.673Z,15.08
2022-11-05T12:43:12.110Z,15.07
2022-11-05T12:45:45.949Z,15.04
2022-11-05T12:48:57.109Z,14.98
2022-11-05T12:51:51.404Z,14.93
2022-11-05T12:54:36.157Z,14.90
2022-11-05T12:57:05.823Z,14.89
2022-11-05T12:59:43.888Z,14.91
2022-11-05T13:02:33.375Z,14.93
2022-11-05T13:05:16.479Z,14.95
2022-11-05T13:07:54.300Z,14.97
2022-11-05T13:10:28.174Z,14.99
2022-11-05T13:13:02.823Z,14.98
2022-11-05T13:15:40.231Z,14.99
2022-11-05T13:18:16.662Z,14.99
2022-11-05T13:20:51.220Z,14.94
2022-11-05T13:23:27.747Z,14.86
2022-11-05T13:26:02.532Z,14.80
2022-11-05T13:28:43.173Z,14.74
2022-11-05T13:31:15.110Z,14.64
2022-11-05T13:33:46.544Z,14.59
2022-11-05T13:36:44.767Z,14.58
2022-11-05T13:39:26.166Z,14.55
2022-11-05T13:42:13.082Z,14.53
2022-11-05T13:44:41.005Z,14.49
2022-11-05T13:47:30.663Z,14.44
2022-11-05T13:50:20.623Z,14.41
2022-11-05T13:53:26.296Z,14.38
2022-11-05T13:56:03.367Z,14.34
2022-11-05T13:59:10.066Z,14.31
2022-11-05T14:02:18.994Z,14.27
2022-11-05T14:05:00.704Z,14.22
2022-11-05T14:07:33.324Z,14.17
2022-11-05T14:10:16.666Z,14.13
2022-11-05T14:12:49.796Z,14.10
2022-11-05T14:15:22.178Z,14.05
2022-11-05T14:18:04.069Z,14.03
2022-11-05T14:20:31.957Z,13.99
2022-11-05T14:23:24.982Z,13.98
2022-11-05T14:26:22.531Z,13.97
2022-11-05T14:29:11.581Z,13.97
2022-11-05T14:32:07.679Z,13.97
2022-11-05T14:34:43.459Z,13.98
2022-11-05T14:37:11.889Z,14.00
2022-11-05T14:39:40.996Z,14.00
2022-11-05T14:42:18.302Z,13.97
2022-11-05T14:45:24.543Z,13.95
2022-11-05T14:48:05.320Z,13.93
2022-11-05T14:50:39.440Z,13.89
2022-11-05T14:53:37.573Z,13.86
2022-11-05T14:56:19.039Z,13.83
2022-11-05T14:58:46.973Z,13.81
2022-11-05T15:01:15.905Z,13.81
2022-11-05T15:04:00.995Z,13.80
2022-11-05T15:06:36.616Z,13.78
2022-11-05T15:09:16.164Z,13.75
2022-11-05T15:12:04.446Z,13.71
2022-11-05T15:14:42.419Z,13.65
2022-11-05T15:17:21.484Z,13.61
2022-11-05T15:19:50.744Z,13.58
2022-11-05T15:22:29.091Z,13.51
2022-11-05T15:24:57.418Z,13.45
2022-11-05T15:27:46.550Z,13.36
2022-11-05T15:30:23.028Z,13.27
2022-11-05T15:32:51.842Z,13.19
2022-11-05T15:35:23.589Z,13.11
2022-11-05T15:37:57.303Z,13.06
2022-11-05T15:40:33.212Z,13.00
2022-11-05T15:43:19.764Z,12.93
2022-11-05T15:46:04.963Z,12.88
2022-11-05T15:48:33.923Z,12.83
2022-11-05T15:51:02.209Z,12.79
2022-11-05T15:56:34.497Z,12.71
2022-11-05T15:59:16.111Z,12.66
2022-11-05T16:01:51.880Z,12.61
2022-11-05T16:04:24.679Z,12.57
2022-11-05T16:06:56.071Z,12.52
2022-11-05T16:09:25.958Z,12.46
2022-11-05T16:12:11.647Z,12.41
2022-11-05T16:14:40.494Z,12.36
2022-11-05T16:17:20.453Z,12.32
2022-11-05T16:19:49.616Z,12.28
2022-11-05T16:22:18.634Z,12.26
2022-11-05T16:24:47.223Z,12.26
2022-11-05T16:27:19.851Z,12.27
2022-11-05T16:29:56.547Z,12.27
2022-11-05T16:32:31.733Z,12.29
2022-11-05T16:35:03.020Z,12.29
2022-11-05T16:37:39.818Z,12.32
2022-11-05T16:40:15.455Z,12.37
2022-11-05T16:42:45.529Z,12.41
2022-11-05T16:45:15.528Z,12.43
2022-11-05T16:47:44.939Z,12.46
2022-11-05T16:50:15.060Z,12.46
2022-11-05T16:52:45.193Z,12.46
2022-11-05T16:55:14.913Z,12.45
2022-11-05T16:57:46.711Z,12.43
2022-11-05T17:00:16.927Z,12.45
2022-11-05T17:02:45.974Z,12.49
2022-11-05T17:05:30.965Z,12.54
2022-11-05T17:08:00.697Z,12.54
2022-11-05T17:10:28.764Z,12.54
2022-11-05T17:12:57.000Z,12.54
2022-11-05T17:15:29.638Z,12.53
2022-11-05T17:17:59.085Z,12.52
2022-11-05T17:20:36.482Z,12.51
2022-11-05T17:23:19.762Z,12.51
2022-11-05T17:26:09.812Z,12.49
2022-11-05T17:28:38.715Z,12.44
2022-11-05T17:31:09.171Z,12.42
2022-11-05T17:33:37.170Z,12.37
2022-11-05T17:36:10.740Z,12.33
2022-11-05T17:38:39.279Z,12.28
2022-11-05T17:41:15.797Z,12.24
2022-11-05T17:43:44.171Z,12.20
2022-11-05T17:46:14.631Z,12.17
2022-11-05T17:48:42.937Z,12.14
2022-11-05T17:51:15.202Z,12.11
2022-11-05T17:53:44.670Z,12.09
2022-11-05T17:56:22.156Z,12.08
2022-11-05T17:58:55.662Z,12.07
2022-11-05T18:01:30.330Z,12.08
2022-11-05T18:04:02.447Z,12.08
2022-11-05T18:06:35.338Z,12.09
2022-11-05T18:09:05.750Z,12.07
2022-11-05T18:11:35.527Z,12.05
2022-11-05T18:14:03.990Z,12.02
2022-11-05T18:16:32.166Z,11.99
2022-11-05T18:19:00.228Z,11.96
2022-11-05T18:21:28.396Z,11.92
2022-11-05T18:23:56.564Z,11.87
2022-11-05T18:26:24.453Z,11.85
2022-11-05T18:28:52.420Z,11.83
2022-11-05T18:31:21.913Z,11.80
2022-11-05T18:33:50.726Z,11.78
2022-11-05T18:36:21.204Z,11.77
2022-11-05T18:38:49.924Z,11.77
2022-11-05T18:41:19.169Z,11.79
2022-11-05T18:43:47.303Z,11.82
2022-11-05T18:46:43.101Z,11.85
2022-11-05T18:49:04.291Z,11.86
2022-11-05T18:51:32.728Z,11.87
2022-11-05T18:54:00.845Z,11.86
2022-11-05T18:56:28.957Z,11.86
2022-11-05T18:59:22.049Z,11.88
2022-11-05T19:01:45.599Z,11.92
2022-11-05T19:04:14.146Z,11.96
2022-11-05T19:06:42.687Z,11.95
2022-11-05T19:09:12.067Z,11.96
2022-11-05T19:11:41.030Z,11.99
2022-11-05T19:14:09.259Z,12.04
2022-11-05T19:16:37.282Z,12.08
2022-11-05T19:19:08.212Z,12.07
2022-11-05T19:21:36.075Z,12.02
2022-11-05T19:24:04.603Z,11.98
2022-11-05T19:26:32.923Z,11.94
2022-11-05T19:29:03.036Z,11.91
2022-11-05T19:31:32.388Z,11.87
2022-11-05T19:34:03.110Z,11.83
2022-11-05T19:36:32.888Z,11.80
2022-11-05T19:39:04.445Z,11.75
2022-11-05T19:41:32.284Z,11.69
2022-11-05T19:44:01.870Z,11.63
2022-11-05T19:46:31.046Z,11.57
2022-11-05T19:49:02.263Z,11.50
2022-11-05T19:51:31.817Z,11.45
2022-11-05T19:54:01.641Z,11.42
2022-11-05T19:56:32.130Z,11.38
2022-11-05T19:59:00.666Z,11.34
2022-11-05T20:01:30.068Z,11.31
2022-11-05T20:03:59.553Z,11.27
2022-11-05T20:06:32.070Z,11.24
2022-11-05T20:11:54.618Z,11.16
2022-11-05T20:14:24.894Z,11.10
2022-11-05T20:16:53.583Z,11.07
2022-11-05T20:19:22.813Z,11.07
2022-11-05T20:21:50.951Z,11.08
2022-11-05T20:24:24.694Z,11.06
2022-11-05T20:26:55.389Z,11.06
2022-11-05T20:29:29.093Z,11.06
2022-11-05T20:32:02.320Z,11.03
2022-11-05T20:34:32.071Z,11.02
2022-11-05T20:37:00.550Z,11.06
2022-11-05T20:39:28.426Z,11.09
2022-11-05T20:41:56.932Z,11.13
2022-11-05T20:44:24.899Z,11.15
2022-11-05T20:46:52.854Z,11.20
2022-11-05T20:49:25.166Z,11.26
2022-11-05T20:51:54.489Z,11.29
2022-11-05T20:54:22.616Z,11.29
2022-11-05T20:56:51.015Z,11.30
2022-11-05T20:59:19.586Z,11.32
2022-11-05T21:01:47.613Z,11.34
2022-11-05T21:04:15.621Z,11.37
2022-11-05T21:06:43.606Z,11.37
2022-11-05T21:09:11.508Z,11.37
2022-11-05T21:11:57.802Z,11.38
2022-11-05T21:14:25.704Z,11.38
2022-11-05T21:16:53.614Z,11.35
2022-11-05T21:19:23.929Z,11.33
2022-11-05T21:21:51.901Z,11.26
2022-11-05T21:24:19.819Z,11.20
2022-11-05T21:26:50.080Z,11.13
2022-11-05T21:29:19.149Z,11.06
2022-11-05T21:31:47.677Z,11.00
2022-11-05T21:34:16.944Z,10.94
2022-11-05T21:36:45.313Z,10.87
2022-11-05T21:39:14.048Z,10.77
2022-11-05T21:41:42.816Z,10.68
2022-11-05T21:44:11.284Z,10.59
2022-11-05T21:46:39.447Z,10.51
2022-11-05T21:49:07.455Z,10.43
2022-11-05T21:51:53.762Z,10.36
2022-11-05T21:54:40.098Z,10.28
2022-11-05T21:57:33.278Z,10.20
2022-11-05T22:00:03.852Z,10.12
2022-11-05T22:02:32.328Z,10.05
2022-11-05T22:05:00.479Z,9.98
2022-11-05T22:07:37.940Z,9.91
2022-11-05T22:10:15.809Z,9.84
2022-11-05T22:12:44.962Z,9.76
2022-11-05T22:15:13.782Z,9.68
2022-11-05T22:17:46.602Z,9.64
2022-11-05T22:20:15.937Z,9.60
2022-11-05T22:22:44.871Z,9.57
2022-11-05T22:25:14.414Z,9.55
2022-11-05T22:27:44.066Z,9.52
2022-11-05T22:30:13.788Z,9.49
2022-11-05T22:32:42.034Z,9.48
2022-11-05T22:35:10.429Z,9.48
2022-11-05T22:37:38.474Z,9.47
2022-11-05T22:40:06.941Z,9.48
2022-11-05T22:42:34.946Z,9.52
2022-11-05T22:45:03.319Z,9.57
2022-11-05T22:47:31.186Z,9.55
2022-11-05T22:49:59.412Z,9.55
2022-11-05T22:52:27.552Z,9.55
2022-11-05T22:54:55.556Z,9.56
2022-11-05T22:57:23.589Z,9.59
2022-11-05T22:59:51.532Z,9.61
2022-11-05T23:02:19.948Z,9.63
2022-11-05T23:04:49.620Z,9.63
2022-11-05T23:07:36.726Z,9.61
2022-11-05T23:10:23.381Z,9.60
2022-11-05T23:12:53.229Z,9.63
2022-11-05T23:15:39.475Z,9.64
2022-11-05T23:18:28.104Z,9.62
2022-11-05T23:21:17.953Z,9.63
2022-11-05T23:24:05.038Z,9.63
2022-11-05T23:26:52.208Z,9.59
2022-11-05T23:29:21.433Z,9.54
2022-11-05T23:32:09.017Z,9.46
2022-11-05T23:34:37.567Z,9.35
2022-11-05T23:37:25.246Z,9.28
2022-11-05T23:39:53.323Z,9.24
2022-11-05T23:42:40.225Z,9.18
2022-11-05T23:45:27.643Z,9.13
2022-11-05T23:48:14.787Z,9.07
2022-11-05T23:50:46.086Z,9.03
2022-11-05T23:53:14.045Z,9.01
2022-11-05T23:55:42.574Z,8.98
2022-11-05T23:58:11.032Z,8.94
